Time;durP1;ratioP1;P1;durP2;ratioP2;P2;SDS_P1;SDS_P2;PMS_P1;PMS_P2;Temp;Humidity;BMP_temperature;BMP_pressure;BME280_temperature;BME280_humidity;BME280_pressure;Samples;Min_cycle;Max_cycle;Signal;HPM_P1;HPM_P2
2022/10/01 00:00:59;;;;;;;16.98;10.52;;;;;;;;;;5044256;28;20043;-72
2022/10/01 00:03:26;;;;;;;12.70;11.18;;;;;;;;;;5050916;28;20032;-69
2022/10/01 00:05:59;;;;;;;11.13;9.68;;;;;;;;;;5043901;28;20089;-71
2022/10/01 00:08:25;;;;;;;11.35;9.85;;;;;;;;;;5047873;28;20734;-74
2022/10/01 00:10:50;;;;;;;21.15;12.77;;;;;;;;;;5041002;28;21476;-72
2022/10/01 00:13:15;;;;;;;12.23;10.30;;;;;;;;;;5055045;28;20147;-72
2022/10/01 00:15:43;;;;;;;11.15;8.63;;;;;;;;;;5045094;28;20052;-71
2022/10/01 00:18:09;;;;;;;12.52;9.95;;;;;;;;;;5028742;28;20209;-72
2022/10/01 00:20:37;;;;;;;10.68;9.00;;;;;;;;;;5045418;28;20036;-68
2022/10/01 00:23:05;;;;;;;12.50;9.77;;;;;;;;;;5047126;28;20672;-70
2022/10/01 00:25:30;;;;;;;15.10;10.98;;;;;;;;;;5048561;28;20097;-70
2022/10/01 00:27:56;;;;;;;11.65;9.30;;;;;;;;;;5032938;28;20040;-73
2022/10/01 00:30:21;;;;;;;15.02;11.05;;;;;;;;;;5032696;28;20054;-70
2022/10/01 00:32:47;;;;;;;15.45;10.55;;;;;;;;;;5048747;28;20044;-69
2022/10/01 00:35:13;;;;;;;16.55;10.10;;;;;;;;;;5045690;28;20042;-70
2022/10/01 00:37:38;;;;;;;15.07;10.00;;;;;;;;;;5057095;28;20892;-69
2022/10/01 00:40:04;;;;;;;10.80;8.77;;;;;;;;;;5046949;28;20064;-69
2022/10/01 00:42:29;;;;;;;9.98;8.05;;;;;;;;;;5044940;28;20089;-69
2022/10/01 00:45:00;;;;;;;10.55;8.30;;;;;;;;;;5046839;28;21528;-69
2022/10/01 00:47:28;;;;;;;22.63;11.35;;;;;;;;;;5042556;28;20709;-69
2022/10/01 00:49:58;;;;;;;10.95;7.65;;;;;;;;;;5042515;28;20099;-70
2022/10/01 00:52:24;;;;;;;9.73;7.18;;;;;;;;;;5043383;28;20040;-69
2022/10/01 00:55:05;;;;;;;8.93;6.63;;;;;;;;;;5042908;28;20603;-68
2022/10/01 00:57:31;;;;;;;21.33;13.85;;;;;;;;;;5044487;28;20036;-69
2022/10/01 01:00:00;;;;;;;12.43;8.63;;;;;;;;;;5046868;28;20104;-69
2022/10/01 01:02:25;;;;;;;9.13;6.72;;;;;;;;;;5046753;28;20829;-68
2022/10/01 01:04:50;;;;;;;9.80;7.10;;;;;;;;;;5027348;28;20041;-68
2022/10/01 01:07:16;;;;;;;15.93;10.05;;;;;;;;;;5045519;28;20040;-68
2022/10/01 01:09:44;;;;;;;20.20;9.63;;;;;;;;;;5045277;28;20032;-67
2022/10/01 01:12:35;;;;;;;12.50;7.45;;;;;;;;;;5030115;28;20052;-68
2022/10/01 01:15:04;;;;;;;13.77;6.82;;;;;;;;;;5035739;28;20037;-69
2022/10/01 01:17:39;;;;;;;9.98;6.80;;;;;;;;;;5048884;28;20044;-68
2022/10/01 01:20:23;;;;;;;24.02;11.23;;;;;;;;;;5051144;28;20029;-68
2022/10/01 01:23:03;;;;;;;17.92;9.68;;;;;;;;;;5065169;28;20039;-70
2022/10/01 01:25:40;;;;;;;12.77;8.25;;;;;;;;;;5069780;28;20055;-71
2022/10/01 01:28:18;;;;;;;11.25;7.63;;;;;;;;;;5059196;28;21001;-72
2022/10/01 01:30:46;;;;;;;13.15;9.02;;;;;;;;;;5057657;28;20044;-72
2022/10/01 01:33:16;;;;;;;18.15;10.07;;;;;;;;;;5067374;28;20052;-70
2022/10/01 01:35:50;;;;;;;13.32;9.55;;;;;;;;;;5048400;28;20143;-70
2022/10/01 01:38:21;;;;;;;16.60;10.02;;;;;;;;;;5059136;28;20032;-71
2022/10/01 01:40:50;;;;;;;23.33;13.23;;;;;;;;;;5059334;28;20144;-72
2022/10/01 01:43:20;;;;;;;14.95;11.57;;;;;;;;;;5064977;28;21027;-72
2022/10/01 01:45:47;;;;;;;15.70;11.00;;;;;;;;;;5065177;28;20044;-70
2022/10/01 01:48:12;;;;;;;21.60;15.45;;;;;;;;;;5059936;28;20147;-69
2022/10/01 01:50:46;;;;;;;17.45;12.95;;;;;;;;;;5059875;28;20072;-71
2022/10/01 01:53:14;;;;;;;16.20;12.00;;;;;;;;;;5061235;28;20147;-70
2022/10/01 01:55:39;;;;;;;15.93;12.95;;;;;;;;;;5065982;27;20036;-69
2022/10/01 01:58:05;;;;;;;20.08;11.65;;;;;;;;;;5049535;28;20043;-71
2022/10/01 02:00:32;;;;;;;17.20;11.38;;;;;;;;;;5051990;28;20039;-68
2022/10/01 02:03:00;;;;;;;18.90;13.02;;;;;;;;;;5048031;28;20103;-69
2022/10/01 02:05:28;;;;;;;20.73;12.23;;;;;;;;;;5047078;28;20516;-68
2022/10/01 02:07:53;;;;;;;22.48;13.30;;;;;;;;;;5019516;28;20131;-69
2022/10/01 02:10:43;;;;;;;25.35;13.32;;;;;;;;;;5047104;28;20498;-68
2022/10/01 02:13:21;;;;;;;27.65;14.35;;;;;;;;;;5046342;28;20148;-69
2022/10/01 02:15:58;;;;;;;33.92;14.45;;;;;;;;;;5046920;28;20036;-69
2022/10/01 02:18:42;;;;;;;37.88;12.18;;;;;;;;;;5039583;28;20872;-69
2022/10/01 02:21:33;;;;;;;33.22;13.25;;;;;;;;;;5055281;28;22374;-71
2022/10/01 02:24:06;;;;;;;33.87;13.53;;;;;;;;;;5058315;28;20113;-68
2022/10/01 02:26:33;;;;;;;26.25;11.00;;;;;;;;;;5051891;28;20085;-69
2022/10/01 02:29:04;;;;;;;30.77;14.93;;;;;;;;;;5043892;28;20044;-68
2022/10/01 02:31:29;;;;;;;29.35;15.00;;;;;;;;;;5048423;28;20043;-69
2022/10/01 02:33:57;;;;;;;28.70;12.18;;;;;;;;;;5047071;28;20040;-70
2022/10/01 02:36:22;;;;;;;30.80;15.05;;;;;;;;;;5037362;28;20459;-71
2022/10/01 02:38:49;;;;;;;35.55;15.32;;;;;;;;;;5046990;28;20145;-68
2022/10/01 02:41:19;;;;;;;25.40;10.65;;;;;;;;;;5036568;28;20036;-69
2022/10/01 02:43:55;;;;;;;26.30;9.95;;;;;;;;;;5051755;28;20029;-70
2022/10/01 02:46:43;;;;;;;30.90;13.70;;;;;;;;;;5057576;28;20043;-69
2022/10/01 02:49:12;;;;;;;27.00;7.82;;;;;;;;;;5045478;28;20031;-71
2022/10/01 02:51:56;;;;;;;38.00;7.90;;;;;;;;;;5043782;28;20059;-71
2022/10/01 02:54:29;;;;;;;39.67;7.88;;;;;;;;;;5059240;27;20067;-70
2022/10/01 02:59:39;;;;;;;30.10;6.88;;;;;;;;;;5039775;28;20449;-69
2022/10/01 03:02:05;;;;;;;36.80;7.05;;;;;;;;;;5041713;28;20036;-69
2022/10/01 03:04:30;;;;;;;22.45;5.55;;;;;;;;;;5025434;28;20036;-71
2022/10/01 03:07:02;;;;;;;28.08;6.78;;;;;;;;;;5059066;27;20904;-71
2022/10/01 03:09:27;;;;;;;26.20;6.75;;;;;;;;;;5044522;28;20039;-71
2022/10/01 03:11:53;;;;;;;34.85;6.00;;;;;;;;;;5041159;28;20139;-72
2022/10/01 03:14:19;;;;;;;40.28;7.03;;;;;;;;;;5038163;28;20047;-72
2022/10/01 03:16:44;;;;;;;48.67;7.13;;;;;;;;;;5041127;28;20036;-71
2022/10/01 03:19:10;;;;;;;33.65;5.10;;;;;;;;;;5040756;28;20036;-70
2022/10/01 03:21:37;;;;;;;39.65;7.35;;;;;;;;;;5042659;28;20109;-71
2022/10/01 03:24:03;;;;;;;36.80;6.60;;;;;;;;;;5043516;28;20514;-71
2022/10/01 03:26:28;;;;;;;47.65;6.53;;;;;;;;;;5040875;28;20036;-71
2022/10/01 03:28:53;;;;;;;27.52;4.80;;;;;;;;;;5046993;28;20492;-70
2022/10/01 03:31:21;;;;;;;40.17;5.25;;;;;;;;;;5019851;28;20884;-69
2022/10/01 03:33:46;;;;;;;35.80;5.22;;;;;;;;;;5044118;28;20036;-69
2022/10/01 03:36:11;;;;;;;38.55;5.60;;;;;;;;;;5044657;28;20098;-71
2022/10/01 03:38:37;;;;;;;34.35;4.85;;;;;;;;;;5011373;28;20067;-71
2022/10/01 03:41:02;;;;;;;35.38;5.55;;;;;;;;;;5018136;28;20028;-72
2022/10/01 03:43:27;;;;;;;30.95;4.95;;;;;;;;;;5045483;28;20040;-71
2022/10/01 03:45:53;;;;;;;33.55;4.93;;;;;;;;;;5044405;28;20067;-71
2022/10/01 03:48:19;;;;;;;33.15;5.10;;;;;;;;;;5040936;28;20036;-72
2022/10/01 03:50:55;;;;;;;28.60;5.20;;;;;;;;;;5036411;28;20099;-70
2022/10/01 03:53:23;;;;;;;29.77;5.07;;;;;;;;;;5040782;28;20032;-70
2022/10/01 03:55:48;;;;;;;41.13;5.43;;;;;;;;;;5040119;28;20082;-71
2022/10/01 03:58:14;;;;;;;22.58;4.18;;;;;;;;;;5041018;28;20043;-71
2022/10/01 04:00:40;;;;;;;28.33;4.45;;;;;;;;;;5040345;28;20027;-69
2022/10/01 04:03:05;;;;;;;31.33;4.57;;;;;;;;;;5039350;28;22376;-69
2022/10/01 04:05:31;;;;;;;33.30;4.38;;;;;;;;;;5039806;28;20059;-69
2022/10/01 04:07:58;;;;;;;30.83;3.95;;;;;;;;;;5055594;28;20170;-69
2022/10/01 04:10:23;;;;;;;37.47;4.95;;;;;;;;;;5047170;28;20049;-69
2022/10/01 04:12:49;;;;;;;25.92;4.90;;;;;;;;;;5054342;28;20035;-70
2022/10/01 04:15:15;;;;;;;26.13;4.00;;;;;;;;;;5051530;28;20036;-71
2022/10/01 04:17:41;;;;;;;32.38;4.25;;;;;;;;;;5041596;28;20260;-70
2022/10/01 04:20:07;;;;;;;31.77;4.10;;;;;;;;;;5039214;28;20046;-70
2022/10/01 04:22:37;;;;;;;28.02;4.22;;;;;;;;;;5043767;28;20169;-70
2022/10/01 04:25:02;;;;;;;26.35;4.03;;;;;;;;;;5041533;28;20059;-71
2022/10/01 04:27:28;;;;;;;31.38;4.45;;;;;;;;;;5029295;28;20036;-70
2022/10/01 04:29:55;;;;;;;26.25;4.47;;;;;;;;;;5041521;28;20028;-70
2022/10/01 04:32:21;;;;;;;22.60;3.50;;;;;;;;;;5042948;28;20051;-70
2022/10/01 04:34:52;;;;;;;24.20;4.13;;;;;;;;;;5045627;28;20047;-69
2022/10/01 04:37:17;;;;;;;23.10;3.53;;;;;;;;;;5031286;28;20028;-70
2022/10/01 04:39:45;;;;;;;20.33;3.50;;;;;;;;;;5048395;28;20035;-68
2022/10/01 04:42:12;;;;;;;25.17;4.10;;;;;;;;;;5046110;28;20043;-69
2022/10/01 04:44:37;;;;;;;25.00;4.30;;;;;;;;;;5046453;28;20052;-69
2022/10/01 04:47:03;;;;;;;23.52;3.80;;;;;;;;;;5045000;28;20036;-70
2022/10/01 04:49:31;;;;;;;21.92;3.42;;;;;;;;;;5044535;28;20048;-66
2022/10/01 04:51:56;;;;;;;28.90;3.83;;;;;;;;;;5045765;28;20040;-69
2022/10/01 04:54:21;;;;;;;26.38;3.63;;;;;;;;;;5049635;28;20047;-68
2022/10/01 04:56:47;;;;;;;21.30;3.97;;;;;;;;;;5047738;28;20048;-68
2022/10/01 04:59:13;;;;;;;32.03;4.03;;;;;;;;;;5051081;28;20032;-68
2022/10/01 05:01:43;;;;;;;30.27;4.75;;;;;;;;;;5042248;28;20035;-68
2022/10/01 05:04:08;;;;;;;26.55;4.38;;;;;;;;;;5052374;28;20112;-68
2022/10/01 05:06:34;;;;;;;24.95;3.80;;;;;;;;;;5053396;28;20032;-69
2022/10/01 05:09:01;;;;;;;24.40;3.63;;;;;;;;;;5050878;28;20043;-67
2022/10/01 05:11:26;;;;;;;21.17;3.67;;;;;;;;;;5050289;28;20041;-67
2022/10/01 05:13:51;;;;;;;30.73;4.63;;;;;;;;;;5048781;28;20090;-67
2022/10/01 05:16:17;;;;;;;25.65;3.90;;;;;;;;;;5049666;28;20047;-68
2022/10/01 05:18:42;;;;;;;27.70;3.70;;;;;;;;;;5048034;28;20036;-70
2022/10/01 05:21:10;;;;;;;22.02;3.72;;;;;;;;;;5047394;28;20032;-71
2022/10/01 05:23:36;;;;;;;25.27;3.47;;;;;;;;;;5033866;28;20044;-71
2022/10/01 05:26:04;;;;;;;29.73;3.72;;;;;;;;;;5047024;28;20186;-70
2022/10/01 05:28:30;;;;;;;36.38;4.10;;;;;;;;;;5045637;28;20032;-70
2022/10/01 05:30:59;;;;;;;18.08;3.08;;;;;;;;;;5029495;28;20762;-71
2022/10/01 05:33:27;;;;;;;29.33;3.83;;;;;;;;;;5046315;28;20064;-71
2022/10/01 05:35:52;;;;;;;24.67;3.47;;;;;;;;;;5046485;28;20047;-70
2022/10/01 05:38:18;;;;;;;21.08;3.10;;;;;;;;;;5049297;28;20029;-70
2022/10/01 05:40:48;;;;;;;23.35;3.53;;;;;;;;;;5031245;28;20623;-69
2022/10/01 05:43:14;;;;;;;19.30;2.75;;;;;;;;;;5046444;28;20054;-70
2022/10/01 05:45:41;;;;;;;22.38;3.90;;;;;;;;;;5047225;28;20199;-71
2022/10/01 05:48:07;;;;;;;20.23;3.50;;;;;;;;;;5049149;28;20090;-70
2022/10/01 05:50:39;;;;;;;23.15;4.00;;;;;;;;;;5047505;28;20077;-71
2022/10/01 05:53:07;;;;;;;23.52;3.72;;;;;;;;;;5045310;28;21282;-70
2022/10/01 05:55:33;;;;;;;23.08;3.08;;;;;;;;;;5050419;28;20110;-69
2022/10/01 05:58:09;;;;;;;26.63;3.50;;;;;;;;;;5046064;28;20135;-71
2022/10/01 06:00:35;;;;;;;21.05;3.20;;;;;;;;;;5044201;28;20086;-71
2022/10/01 06:03:01;;;;;;;17.92;3.13;;;;;;;;;;5030003;28;21013;-71
2022/10/01 06:05:27;;;;;;;22.38;3.05;;;;;;;;;;5032411;28;20074;-71
2022/10/01 06:07:52;;;;;;;24.00;3.28;;;;;;;;;;5047162;28;20029;-71
2022/10/01 06:10:20;;;;;;;22.63;3.40;;;;;;;;;;5045046;28;20025;-70
2022/10/01 06:12:47;;;;;;;23.75;3.38;;;;;;;;;;5047621;28;20036;-70
2022/10/01 06:15:15;;;;;;;26.55;3.50;;;;;;;;;;5046660;28;20028;-71
2022/10/01 06:17:44;;;;;;;21.45;3.35;;;;;;;;;;5046448;28;20107;-70
2022/10/01 06:20:16;;;;;;;25.52;3.67;;;;;;;;;;5043728;28;20032;-71
2022/10/01 06:22:42;;;;;;;24.83;3.53;;;;;;;;;;5038691;28;20488;-72
2022/10/01 06:25:11;;;;;;;26.10;6.05;;;;;;;;;;5040879;28;20292;-71
2022/10/01 06:27:39;;;;;;;24.30;5.78;;;;;;;;;;5042124;28;20024;-70
2022/10/01 06:30:05;;;;;;;18.42;3.00;;;;;;;;;;5006281;28;20039;-71
2022/10/01 06:32:31;;;;;;;20.38;4.50;;;;;;;;;;5042099;28;20431;-71
2022/10/01 06:34:56;;;;;;;24.08;4.20;;;;;;;;;;5043742;28;20236;-69
2022/10/01 06:37:22;;;;;;;26.33;4.45;;;;;;;;;;5030904;28;20493;-70
2022/10/01 06:39:49;;;;;;;20.40;3.80;;;;;;;;;;5039235;28;20117;-70
2022/10/01 06:42:15;;;;;;;27.85;4.38;;;;;;;;;;5041282;28;20040;-71
2022/10/01 06:44:41;;;;;;;22.05;4.20;;;;;;;;;;5038600;28;20276;-70
2022/10/01 06:47:06;;;;;;;24.13;4.65;;;;;;;;;;5045171;28;20179;-70
2022/10/01 06:49:32;;;;;;;23.85;4.00;;;;;;;;;;5042840;28;20036;-70
2022/10/01 06:54:40;;;;;;;22.10;4.10;;;;;;;;;;5040653;28;20032;-70
2022/10/01 06:57:06;;;;;;;25.63;4.45;;;;;;;;;;5029942;28;20282;-70
2022/10/01 06:59:35;;;;;;;19.05;3.80;;;;;;;;;;5046170;28;20037;-71
2022/10/01 07:02:01;;;;;;;28.05;4.05;;;;;;;;;;5058750;28;20567;-70
2022/10/01 07:04:27;;;;;;;28.80;5.22;;;;;;;;;;5047505;28;20573;-70
2022/10/01 07:06:54;;;;;;;30.05;4.90;;;;;;;;;;5043744;28;20039;-69
2022/10/01 07:09:22;;;;;;;24.40;4.13;;;;;;;;;;5039368;28;20036;-70
2022/10/01 07:11:48;;;;;;;24.50;4.25;;;;;;;;;;5051155;28;20124;-70
2022/10/01 07:14:13;;;;;;;31.33;4.55;;;;;;;;;;5060493;27;20083;-70
2022/10/01 07:16:40;;;;;;;18.30;3.42;;;;;;;;;;5043037;28;20363;-69
2022/10/01 07:19:06;;;;;;;25.85;3.67;;;;;;;;;;5042851;28;20037;-70
2022/10/01 07:21:31;;;;;;;29.20;3.88;;;;;;;;;;5047713;28;20133;-69
2022/10/01 07:23:57;;;;;;;29.02;4.53;;;;;;;;;;5050982;28;20517;-68
2022/10/01 07:26:24;;;;;;;22.25;4.47;;;;;;;;;;5051324;28;20118;-68
2022/10/01 07:28:49;;;;;;;23.80;3.92;;;;;;;;;;5048515;28;20393;-67
2022/10/01 07:31:15;;;;;;;27.35;4.07;;;;;;;;;;5065579;28;20635;-69
2022/10/01 07:33:40;;;;;;;23.13;4.43;;;;;;;;;;5050399;28;20305;-68
2022/10/01 07:36:06;;;;;;;22.55;4.15;;;;;;;;;;5051984;28;20130;-67
2022/10/01 07:38:34;;;;;;;22.25;3.55;;;;;;;;;;5051376;28;20048;-68
2022/10/01 07:41:03;;;;;;;25.98;3.55;;;;;;;;;;5044032;28;20074;-68
2022/10/01 07:43:29;;;;;;;28.73;3.70;;;;;;;;;;5065842;28;20497;-68
2022/10/01 07:45:58;;;;;;;24.70;3.58;;;;;;;;;;5057124;28;20299;-67
2022/10/01 07:48:24;;;;;;;27.02;3.92;;;;;;;;;;5031296;28;20029;-68
2022/10/01 07:50:49;;;;;;;20.30;3.45;;;;;;;;;;5055425;28;20040;-68
2022/10/01 07:53:15;;;;;;;19.63;3.40;;;;;;;;;;5057290;28;20029;-67
2022/10/01 07:55:41;;;;;;;19.00;3.50;;;;;;;;;;5057561;28;20062;-67
2022/10/01 07:58:06;;;;;;;20.13;3.35;;;;;;;;;;5051224;28;20132;-67
2022/10/01 08:00:33;;;;;;;21.60;3.53;;;;;;;;;;5049433;28;20093;-67
2022/10/01 08:03:00;;;;;;;17.95;3.17;;;;;;;;;;5053907;28;20459;-67
2022/10/01 08:05:27;;;;;;;25.25;3.90;;;;;;;;;;5055322;28;20028;-67
2022/10/01 08:07:56;;;;;;;23.45;3.85;;;;;;;;;;5056229;28;20028;-68
2022/10/01 08:10:22;;;;;;;17.08;3.67;;;;;;;;;;5063027;28;20455;-68
2022/10/01 08:12:47;;;;;;;20.80;3.67;;;;;;;;;;5046091;28;20025;-69
2022/10/01 08:15:14;;;;;;;19.88;3.30;;;;;;;;;;5062202;28;20028;-68
2022/10/01 08:17:39;;;;;;;15.10;2.95;;;;;;;;;;5060467;28;20024;-68
2022/10/01 08:20:06;;;;;;;17.98;3.50;;;;;;;;;;5063171;28;20081;-69
2022/10/01 08:22:32;;;;;;;20.85;3.03;;;;;;;;;;5057626;28;20036;-66
2022/10/01 08:24:57;;;;;;;20.92;3.35;;;;;;;;;;5060202;28;20038;-68
2022/10/01 08:27:23;;;;;;;24.40;3.78;;;;;;;;;;5059956;28;20043;-68
2022/10/01 08:29:49;;;;;;;18.77;3.17;;;;;;;;;;5058230;28;20028;-67
2022/10/01 08:32:17;;;;;;;19.92;3.35;;;;;;;;;;5063392;28;20036;-68
2022/10/01 08:34:42;;;;;;;23.25;3.63;;;;;;;;;;5048270;28;20137;-69
2022/10/01 08:37:10;;;;;;;23.45;4.45;;;;;;;;;;5043319;28;20163;-68
2022/10/01 08:39:36;;;;;;;27.92;4.00;;;;;;;;;;5070919;28;20763;-67
2022/10/01 08:42:07;;;;;;;25.83;4.38;;;;;;;;;;5069396;28;20024;-68
2022/10/01 08:44:40;;;;;;;19.27;3.45;;;;;;;;;;5059635;28;20052;-69
2022/10/01 08:47:10;;;;;;;25.63;4.05;;;;;;;;;;5062145;28;20543;-69
2022/10/01 08:49:47;;;;;;;19.45;3.80;;;;;;;;;;5054179;28;20413;-68
2022/10/01 08:52:21;;;;;;;21.30;4.43;;;;;;;;;;5054253;28;20062;-68
2022/10/01 08:54:50;;;;;;;22.63;4.05;;;;;;;;;;5034500;28;20032;-68
2022/10/01 08:57:23;;;;;;;23.83;3.38;;;;;;;;;;5054709;28;20051;-69
2022/10/01 08:59:53;;;;;;;19.75;3.88;;;;;;;;;;5059578;28;20055;-68
2022/10/01 09:02:23;;;;;;;18.50;3.42;;;;;;;;;;5056038;28;20024;-68
2022/10/01 09:04:56;;;;;;;21.33;3.40;;;;;;;;;;5053536;28;20105;-68
2022/10/01 09:07:30;;;;;;;23.45;4.30;;;;;;;;;;5058528;28;20039;-68
2022/10/01 09:10:04;;;;;;;22.88;5.88;;;;;;;;;;5056917;28;20032;-65
2022/10/01 09:12:29;;;;;;;25.20;4.53;;;;;;;;;;5054408;28;20122;-64
2022/10/01 09:14:59;;;;;;;24.17;3.80;;;;;;;;;;5055086;28;20510;-63
2022/10/01 09:17:43;;;;;;;24.15;3.63;;;;;;;;;;5054434;28;20043;-66
2022/10/01 09:20:22;;;;;;;23.30;3.58;;;;;;;;;;5053657;28;20067;-65
2022/10/01 09:23:01;;;;;;;20.30;3.65;;;;;;;;;;5053791;28;20748;-65
2022/10/01 09:25:26;;;;;;;23.35;4.43;;;;;;;;;;5070659;28;20524;-66
2022/10/01 09:28:12;;;;;;;26.15;3.80;;;;;;;;;;5051246;28;20032;-65
2022/10/01 09:30:41;;;;;;;22.83;3.33;;;;;;;;;;5048186;28;20043;-65
2022/10/01 09:33:14;;;;;;;22.08;3.92;;;;;;;;;;5052221;28;20056;-65
2022/10/01 09:35:45;;;;;;;24.50;4.40;;;;;;;;;;5052490;28;20066;-66
2022/10/01 09:38:30;;;;;;;21.80;3.95;;;;;;;;;;5066116;28;20429;-64
2022/10/01 09:40:56;;;;;;;18.45;3.40;;;;;;;;;;5050646;28;20024;-65
2022/10/01 09:43:22;;;;;;;18.80;3.47;;;;;;;;;;5053741;28;20048;-65
2022/10/01 09:45:49;;;;;;;20.30;3.38;;;;;;;;;;5050439;28;20130;-65
2022/10/01 09:48:18;;;;;;;24.92;3.92;;;;;;;;;;5050112;28;20028;-64
2022/10/01 09:50:54;;;;;;;25.40;4.22;;;;;;;;;;5063887;27;20472;-66
2022/10/01 09:53:21;;;;;;;21.55;3.78;;;;;;;;;;5031048;28;20050;-65
2022/10/01 09:55:56;;;;;;;27.48;4.07;;;;;;;;;;5049496;28;20040;-65
2022/10/01 09:58:23;;;;;;;22.70;4.25;;;;;;;;;;5048143;28;20032;-63
2022/10/01 10:00:52;;;;;;;24.13;4.20;;;;;;;;;;5033740;28;20028;-65
2022/10/01 10:03:26;;;;;;;23.73;3.90;;;;;;;;;;5018029;28;20040;-65
2022/10/01 10:05:53;;;;;;;26.77;4.45;;;;;;;;;;5051631;28;20048;-66
2022/10/01 10:08:26;;;;;;;24.70;3.90;;;;;;;;;;5056240;28;20028;-64
2022/10/01 10:10:57;;;;;;;23.80;4.03;;;;;;;;;;5055710;28;20125;-64
2022/10/01 10:13:25;;;;;;;21.95;3.25;;;;;;;;;;5057821;28;20047;-66
2022/10/01 10:15:52;;;;;;;26.00;3.42;;;;;;;;;;5051735;28;20059;-64
2022/10/01 10:18:25;;;;;;;26.45;4.28;;;;;;;;;;5050191;28;20118;-67
2022/10/01 10:20:52;;;;;;;20.95;3.75;;;;;;;;;;5054069;28;20072;-67
2022/10/01 10:23:19;;;;;;;28.58;4.32;;;;;;;;;;5049837;28;20594;-65
2022/10/01 10:26:01;;;;;;;26.98;4.60;;;;;;;;;;5051218;28;20037;-65
2022/10/01 10:28:28;;;;;;;24.58;4.78;;;;;;;;;;5059808;28;20033;-64
2022/10/01 10:30:54;;;;;;;25.52;4.60;;;;;;;;;;5045496;28;20795;-65
2022/10/01 10:33:21;;;;;;;28.33;3.83;;;;;;;;;;5048314;28;20051;-64
2022/10/01 10:35:56;;;;;;;29.15;4.93;;;;;;;;;;5030602;28;20090;-64
2022/10/01 10:38:24;;;;;;;26.40;4.47;;;;;;;;;;5051575;28;20679;-63
2022/10/01 10:40:49;;;;;;;27.70;5.20;;;;;;;;;;5052799;28;20051;-65
2022/10/01 10:43:22;;;;;;;28.45;4.13;;;;;;;;;;5053855;28;20473;-65
2022/10/01 10:45:54;;;;;;;25.38;4.63;;;;;;;;;;5051620;28;20087;-64
2022/10/01 10:48:20;;;;;;;20.50;3.50;;;;;;;;;;5052457;28;20480;-64
2022/10/01 10:50:48;;;;;;;26.02;4.50;;;;;;;;;;5024389;28;20036;-65
2022/10/01 10:53:18;;;;;;;19.35;4.07;;;;;;;;;;5049766;28;20016;-66
2022/10/01 10:55:52;;;;;;;21.70;4.68;;;;;;;;;;5048408;28;20888;-68
2022/10/01 10:58:18;;;;;;;20.85;3.92;;;;;;;;;;5015958;28;20025;-64
2022/10/01 11:00:48;;;;;;;27.88;4.32;;;;;;;;;;5044475;28;20036;-67
2022/10/01 11:03:16;;;;;;;27.33;4.20;;;;;;;;;;5030000;28;20046;-69
2022/10/01 11:05:41;;;;;;;30.98;4.53;;;;;;;;;;5050744;28;20652;-66
2022/10/01 11:08:10;;;;;;;28.02;4.30;;;;;;;;;;5054415;28;20129;-67
2022/10/01 11:10:35;;;;;;;20.52;3.55;;;;;;;;;;5046824;28;20044;-67
2022/10/01 11:13:07;;;;;;;21.45;3.25;;;;;;;;;;5048507;28;20036;-68
2022/10/01 11:15:47;;;;;;;21.90;4.30;;;;;;;;;;5047142;28;20070;-67
2022/10/01 11:18:15;;;;;;;20.23;4.18;;;;;;;;;;5045958;28;20032;-67
2022/10/01 11:20:50;;;;;;;26.08;4.50;;;;;;;;;;5030979;28;20051;-69
2022/10/01 11:23:26;;;;;;;24.38;3.90;;;;;;;;;;5044043;28;20036;-70
2022/10/01 11:26:08;;;;;;;32.58;4.32;;;;;;;;;;5068778;28;20036;-67
2022/10/01 11:28:52;;;;;;;23.70;3.90;;;;;;;;;;5050604;28;20056;-67
2022/10/01 11:31:17;;;;;;;25.27;4.20;;;;;;;;;;5030202;28;20150;-66
2022/10/01 11:33:50;;;;;;;26.17;4.70;;;;;;;;;;5055465;28;20039;-67
2022/10/01 11:36:15;;;;;;;22.90;3.78;;;;;;;;;;5055393;28;20047;-66
2022/10/01 11:38:44;;;;;;;25.77;4.35;;;;;;;;;;5035426;28;20044;-68
2022/10/01 11:41:17;;;;;;;25.17;4.00;;;;;;;;;;5058454;28;20094;-67
2022/10/01 11:43:46;;;;;;;27.40;4.15;;;;;;;;;;5054981;28;20143;-67
2022/10/01 11:46:13;;;;;;;26.02;4.10;;;;;;;;;;5058283;28;20044;-67
2022/10/01 11:49:14;;;;;;;25.13;4.00;;;;;;;;;;5058869;28;20051;-66
2022/10/01 11:51:43;;;;;;;23.23;4.03;;;;;;;;;;4976471;28;20042;-67
2022/10/01 11:54:13;;;;;;;20.98;3.33;;;;;;;;;;5035235;28;20925;-66
2022/10/01 11:59:40;;;;;;;30.80;4.22;;;;;;;;;;5019929;28;20036;-65
2022/10/01 12:02:13;;;;;;;20.40;3.83;;;;;;;;;;5057278;28;20050;-64
2022/10/01 12:04:42;;;;;;;26.85;4.18;;;;;;;;;;5068766;28;20036;-64
2022/10/01 12:07:14;;;;;;;27.88;3.92;;;;;;;;;;5044038;28;20029;-65
2022/10/01 12:09:48;;;;;;;24.17;4.15;;;;;;;;;;5054160;28;20031;-65
2022/10/01 12:12:23;;;;;;;31.25;4.82;;;;;;;;;;5055907;28;20059;-66
2022/10/01 12:14:53;;;;;;;28.48;4.13;;;;;;;;;;5049353;28;20046;-66
2022/10/01 12:17:39;;;;;;;30.58;4.70;;;;;;;;;;5037502;28;20032;-68
2022/10/01 12:20:11;;;;;;;23.17;3.58;;;;;;;;;;5035519;28;20044;-66
2022/10/01 12:22:37;;;;;;;31.38;4.88;;;;;;;;;;5050143;28;20263;-66
2022/10/01 12:25:10;;;;;;;26.08;4.95;;;;;;;;;;5052718;28;20654;-65
2022/10/01 12:27:44;;;;;;;23.45;4.15;;;;;;;;;;5012597;28;20032;-66
2022/10/01 12:30:12;;;;;;;27.75;4.30;;;;;;;;;;5050525;28;20384;-66
2022/10/01 12:32:53;;;;;;;22.85;4.05;;;;;;;;;;5048325;28;20703;-66
2022/10/01 12:35:38;;;;;;;28.42;4.65;;;;;;;;;;5048222;28;20028;-66
2022/10/01 12:38:21;;;;;;;28.58;4.97;;;;;;;;;;5048209;28;20447;-67
2022/10/01 12:41:05;;;;;;;24.83;4.18;;;;;;;;;;5044873;28;20043;-67
2022/10/01 12:43:30;;;;;;;25.58;3.53;;;;;;;;;;5043308;28;20449;-66
2022/10/01 12:46:05;;;;;;;29.30;4.15;;;;;;;;;;5044457;28;20348;-67
2022/10/01 12:48:35;;;;;;;27.02;3.70;;;;;;;;;;5043646;28;20055;-67
2022/10/01 12:51:03;;;;;;;21.65;3.25;;;;;;;;;;5041979;28;20035;-67
2022/10/01 12:53:45;;;;;;;33.55;4.63;;;;;;;;;;5042871;28;20242;-66
2022/10/01 12:56:28;;;;;;;19.50;4.03;;;;;;;;;;5025416;28;20032;-67
2022/10/01 12:59:12;;;;;;;19.38;3.70;;;;;;;;;;5003068;28;20306;-68
2022/10/01 13:01:38;;;;;;;22.58;4.00;;;;;;;;;;5045755;28;20674;-67
2022/10/01 13:04:17;;;;;;;29.13;4.10;;;;;;;;;;5028776;28;20116;-66
2022/10/01 13:06:50;;;;;;;27.75;3.72;;;;;;;;;;5041663;28;20110;-66
2022/10/01 13:09:38;;;;;;;25.80;3.78;;;;;;;;;;5037290;28;20269;-66
2022/10/01 13:12:04;;;;;;;30.60;4.20;;;;;;;;;;5052143;28;20059;-66
2022/10/01 13:14:32;;;;;;;33.70;4.90;;;;;;;;;;5040125;28;20040;-65
2022/10/01 13:17:09;;;;;;;25.13;3.83;;;;;;;;;;5042667;28;20683;-66
2022/10/01 13:19:54;;;;;;;28.70;4.43;;;;;;;;;;5045265;28;20071;-67
2022/10/01 13:22:26;;;;;;;33.22;4.40;;;;;;;;;;5046140;28;20036;-66
2022/10/01 13:24:59;;;;;;;29.90;4.53;;;;;;;;;;5042068;28;20124;-67
2022/10/01 13:27:34;;;;;;;30.17;4.28;;;;;;;;;;5044191;28;20342;-67
2022/10/01 13:30:03;;;;;;;28.83;4.70;;;;;;;;;;5044069;28;20059;-67
2022/10/01 13:32:40;;;;;;;26.90;3.90;;;;;;;;;;5045688;28;20131;-66
2022/10/01 13:35:24;;;;;;;25.50;4.32;;;;;;;;;;5041544;28;20102;-68
2022/10/01 13:37:49;;;;;;;31.15;4.30;;;;;;;;;;5035783;28;20208;-68
2022/10/01 13:40:20;;;;;;;28.10;4.15;;;;;;;;;;5037914;28;20882;-68
2022/10/01 13:42:46;;;;;;;32.38;4.95;;;;;;;;;;5037968;28;20044;-67
2022/10/01 13:45:24;;;;;;;21.50;4.40;;;;;;;;;;5039822;28;20079;-68
2022/10/01 13:47:49;;;;;;;34.83;5.45;;;;;;;;;;5043673;28;20100;-68
2022/10/01 13:50:18;;;;;;;27.73;5.10;;;;;;;;;;5020764;28;20736;-67
2022/10/01 13:52:43;;;;;;;27.67;3.83;;;;;;;;;;5045570;28;20044;-67
2022/10/01 13:55:26;;;;;;;26.48;4.60;;;;;;;;;;5046713;28;20067;-67
2022/10/01 13:58:00;;;;;;;23.05;4.45;;;;;;;;;;5046740;28;20047;-67
2022/10/01 14:00:25;;;;;;;25.27;3.75;;;;;;;;;;5048157;28;20037;-67
2022/10/01 14:02:59;;;;;;;30.92;4.57;;;;;;;;;;5043356;28;20040;-67
2022/10/01 14:05:42;;;;;;;31.70;4.70;;;;;;;;;;5044010;28;20036;-67
2022/10/01 14:08:12;;;;;;;28.25;4.40;;;;;;;;;;5029204;28;20034;-68
2022/10/01 14:15:57;;;;;;;27.40;3.88;;;;;;;;;;5040236;28;20032;-67
2022/10/01 14:16:13;;;;;;;35.28;4.45;;;;;;;;;;5044312;28;20035;-67
2022/10/01 14:18:42;;;;;;;32.65;4.63;;;;;;;;;;5045302;28;20915;-67
2022/10/01 14:21:16;;;;;;;28.27;4.25;;;;;;;;;;5044803;28;20036;-69
2022/10/01 14:24:01;;;;;;;29.58;4.32;;;;;;;;;;5037663;28;20705;-66
2022/10/01 14:26:27;;;;;;;24.67;3.85;;;;;;;;;;5039447;28;20020;-68
2022/10/01 14:29:10;;;;;;;32.03;4.28;;;;;;;;;;5020195;28;20067;-66
2022/10/01 14:31:44;;;;;;;24.10;4.35;;;;;;;;;;5039689;28;20928;-68
2022/10/01 14:34:19;;;;;;;35.80;5.60;;;;;;;;;;5022815;28;20033;-67
2022/10/01 14:36:49;;;;;;;27.35;4.45;;;;;;;;;;5040972;28;20043;-67
2022/10/01 14:39:22;;;;;;;23.38;3.95;;;;;;;;;;5039969;28;20032;-67
2022/10/01 14:41:48;;;;;;;24.15;3.67;;;;;;;;;;5039821;28;20032;-68
2022/10/01 14:44:26;;;;;;;26.98;4.60;;;;;;;;;;5039412;28;20148;-66
2022/10/01 14:46:53;;;;;;;25.10;4.10;;;;;;;;;;5039228;28;20868;-67
2022/10/01 14:49:20;;;;;;;24.80;4.03;;;;;;;;;;5015065;28;20143;-65
2022/10/01 14:51:53;;;;;;;28.92;3.90;;;;;;;;;;5039596;28;20044;-68
2022/10/01 14:54:21;;;;;;;19.10;3.50;;;;;;;;;;5040840;28;20045;-67